sensor_id;sensor_type;location;lat;lon;timestamp;P1;durP1;ratioP1;P2;durP2;ratioP2
72205;SDS011;60111;48.286;7.812;2024-03-23T00:54:32;2.13;;;1.90;;
72205;SDS011;60111;48.286;7.812;2024-03-23T00:57:05;3.50;;;2.35;;
72205;SDS011;60111;48.286;7.812;2024-03-23T00:59:37;9.53;;;2.33;;
72205;SDS011;60111;48.286;7.812;2024-03-23T01:02:10;5.30;;;2.20;;
72205;SDS011;60111;48.286;7.812;2024-03-23T01:04:42;3.65;;;2.10;;
72205;SDS011;60111;48.286;7.812;2024-03-23T01:07:15;3.03;;;2.07;;
72205;SDS011;60111;48.286;7.812;2024-03-23T01:09:47;2.67;;;1.95;;
72205;SDS011;60111;48.286;7.812;2024-03-23T01:12:20;3.77;;;2.20;;
72205;SDS011;60111;48.286;7.812;2024-03-23T01:14:53;3.67;;;2.27;;
72205;SDS011;60111;48.286;7.812;2024-03-23T01:17:25;2.92;;;1.80;;
72205;SDS011;60111;48.286;7.812;2024-03-23T01:19:58;4.87;;;2.10;;
72205;SDS011;60111;48.286;7.812;2024-03-23T01:22:31;4.37;;;1.95;;
72205;SDS011;60111;48.286;7.812;2024-03-23T01:25:04;5.10;;;2.20;;
72205;SDS011;60111;48.286;7.812;2024-03-23T01:27:36;3.58;;;2.30;;
72205;SDS011;60111;48.286;7.812;2024-03-23T01:30:09;4.72;;;2.00;;
72205;SDS011;60111;48.286;7.812;2024-03-23T01:32:42;3.08;;;2.05;;
72205;SDS011;60111;48.286;7.812;2024-03-23T01:35:14;4.43;;;2.30;;
72205;SDS011;60111;48.286;7.812;2024-03-23T01:37:47;4.70;;;2.05;;
72205;SDS011;60111;48.286;7.812;2024-03-23T01:40:19;3.20;;;1.90;;
72205;SDS011;60111;48.286;7.812;2024-03-23T01:42:55;3.22;;;2.30;;
72205;SDS011;60111;48.286;7.812;2024-03-23T01:45:28;4.30;;;2.10;;
72205;SDS011;60111;48.286;7.812;2024-03-23T01:48:02;4.40;;;1.92;;
72205;SDS011;60111;48.286;7.812;2024-03-23T01:50:35;4.03;;;2.40;;
72205;SDS011;60111;48.286;7.812;2024-03-23T01:53:08;2.33;;;2.08;;
72205;SDS011;60111;48.286;7.812;2024-03-23T01:55:40;7.58;;;2.40;;
72205;SDS011;60111;48.286;7.812;2024-03-23T01:58:13;2.90;;;2.47;;
72205;SDS011;60111;48.286;7.812;2024-03-23T02:00:46;5.83;;;2.12;;
72205;SDS011;60111;48.286;7.812;2024-03-23T02:03:25;3.87;;;1.93;;
72205;SDS011;60111;48.286;7.812;2024-03-23T02:05:58;3.85;;;2.42;;
72205;SDS011;60111;48.286;7.812;2024-03-23T02:08:31;5.02;;;2.20;;
72205;SDS011;60111;48.286;7.812;2024-03-23T02:11:04;3.98;;;2.25;;
72205;SDS011;60111;48.286;7.812;2024-03-23T02:13:36;6.55;;;2.55;;
72205;SDS011;60111;48.286;7.812;2024-03-23T02:16:09;7.42;;;2.70;;
72205;SDS011;60111;48.286;7.812;2024-03-23T02:18:42;4.28;;;2.30;;
72205;SDS011;60111;48.286;7.812;2024-03-23T02:21:15;2.93;;;2.20;;
72205;SDS011;60111;48.286;7.812;2024-03-23T02:23:47;4.80;;;2.20;;
72205;SDS011;60111;48.286;7.812;2024-03-23T02:26:20;4.40;;;2.65;;
72205;SDS011;60111;48.286;7.812;2024-03-23T02:28:52;2.52;;;2.05;;
72205;SDS011;60111;48.286;7.812;2024-03-23T02:31:26;3.70;;;2.50;;
72205;SDS011;60111;48.286;7.812;2024-03-23T02:33:59;4.13;;;2.23;;
72205;SDS011;60111;48.286;7.812;2024-03-23T02:36:31;4.37;;;2.47;;
72205;SDS011;60111;48.286;7.812;2024-03-23T02:39:04;4.80;;;2.37;;
72205;SDS011;60111;48.286;7.812;2024-03-23T02:41:37;3.87;;;2.37;;
72205;SDS011;60111;48.286;7.812;2024-03-23T02:44:10;2.67;;;2.15;;
72205;SDS011;60111;48.286;7.812;2024-03-23T02:46:45;5.10;;;2.20;;
72205;SDS011;60111;48.286;7.812;2024-03-23T02:49:18;6.53;;;2.50;;
72205;SDS011;60111;48.286;7.812;2024-03-23T02:51:52;3.75;;;2.20;;
72205;SDS011;60111;48.286;7.812;2024-03-23T02:54:24;4.12;;;2.60;;
72205;SDS011;60111;48.286;7.812;2024-03-23T02:56:57;2.35;;;2.15;;
72205;SDS011;60111;48.286;7.812;2024-03-23T02:59:29;5.72;;;2.80;;
72205;SDS011;60111;48.286;7.812;2024-03-23T03:02:02;3.12;;;2.60;;
72205;SDS011;60111;48.286;7.812;2024-03-23T03:04:35;4.17;;;2.27;;
72205;SDS011;60111;48.286;7.812;2024-03-23T03:07:08;3.72;;;2.37;;
72205;SDS011;60111;48.286;7.812;2024-03-23T03:09:40;3.72;;;2.55;;
72205;SDS011;60111;48.286;7.812;2024-03-23T03:12:13;4.08;;;2.50;;
72205;SDS011;60111;48.286;7.812;2024-03-23T03:14:45;3.13;;;2.70;;
72205;SDS011;60111;48.286;7.812;2024-03-23T03:17:19;6.40;;;2.67;;
72205;SDS011;60111;48.286;7.812;2024-03-23T03:19:51;6.80;;;2.60;;
72205;SDS011;60111;48.286;7.812;2024-03-23T03:22:26;3.33;;;2.70;;
72205;SDS011;60111;48.286;7.812;2024-03-23T03:24:58;4.67;;;2.40;;
72205;SDS011;60111;48.286;7.812;2024-03-23T03:27:31;3.95;;;2.65;;
72205;SDS011;60111;48.286;7.812;2024-03-23T03:30:04;3.05;;;2.35;;
72205;SDS011;60111;48.286;7.812;2024-03-23T03:32:38;4.65;;;2.40;;
72205;SDS011;60111;48.286;7.812;2024-03-23T03:35:11;3.30;;;2.30;;
72205;SDS011;60111;48.286;7.812;2024-03-23T03:37:43;3.40;;;2.40;;
72205;SDS011;60111;48.286;7.812;2024-03-23T03:40:16;5.10;;;2.75;;
72205;SDS011;60111;48.286;7.812;2024-03-23T03:42:49;6.45;;;2.70;;
72205;SDS011;60111;48.286;7.812;2024-03-23T03:45:21;2.40;;;2.17;;
72205;SDS011;60111;48.286;7.812;2024-03-23T03:47:54;5.92;;;3.40;;
72205;SDS011;60111;48.286;7.812;2024-03-23T03:50:26;3.27;;;2.30;;
72205;SDS011;60111;48.286;7.812;2024-03-23T03:52:59;5.75;;;2.40;;
72205;SDS011;60111;48.286;7.812;2024-03-23T03:55:32;2.83;;;2.13;;
72205;SDS011;60111;48.286;7.812;2024-03-23T03:58:05;5.00;;;2.97;;
72205;SDS011;60111;48.286;7.812;2024-03-23T04:00:37;3.77;;;2.47;;
72205;SDS011;60111;48.286;7.812;2024-03-23T04:03:11;5.43;;;3.00;;
72205;SDS011;60111;48.286;7.812;2024-03-23T04:05:49;6.22;;;3.12;;
72205;SDS011;60111;48.286;7.812;2024-03-23T04:08:22;5.67;;;3.20;;
72205;SDS011;60111;48.286;7.812;2024-03-23T04:10:55;6.12;;;2.92;;
72205;SDS011;60111;48.286;7.812;2024-03-23T04:13:28;6.65;;;3.15;;
72205;SDS011;60111;48.286;7.812;2024-03-23T04:16:00;5.28;;;3.20;;
72205;SDS011;60111;48.286;7.812;2024-03-23T04:18:33;4.67;;;3.05;;
72205;SDS011;60111;48.286;7.812;2024-03-23T04:21:05;7.62;;;3.20;;
72205;SDS011;60111;48.286;7.812;2024-03-23T04:23:38;5.45;;;3.00;;
72205;SDS011;60111;48.286;7.812;2024-03-23T04:26:11;7.50;;;3.75;;
72205;SDS011;60111;48.286;7.812;2024-03-23T04:28:44;5.30;;;3.87;;
72205;SDS011;60111;48.286;7.812;2024-03-23T04:31:16;8.53;;;5.65;;
72205;SDS011;60111;48.286;7.812;2024-03-23T04:33:49;17.27;;;8.50;;
72205;SDS011;60111;48.286;7.812;2024-03-23T04:36:21;12.40;;;9.50;;
72205;SDS011;60111;48.286;7.812;2024-03-23T04:38:54;12.93;;;9.60;;
72205;SDS011;60111;48.286;7.812;2024-03-23T04:41:27;16.05;;;10.32;;
72205;SDS011;60111;48.286;7.812;2024-03-23T04:43:59;15.32;;;10.93;;
72205;SDS011;60111;48.286;7.812;2024-03-23T04:46:33;15.38;;;11.03;;
72205;SDS011;60111;48.286;7.812;2024-03-23T04:49:05;13.32;;;11.00;;
72205;SDS011;60111;48.286;7.812;2024-03-23T04:51:39;18.15;;;11.65;;
72205;SDS011;60111;48.286;7.812;2024-03-23T04:54:14;18.07;;;10.67;;
72205;SDS011;60111;48.286;7.812;2024-03-23T04:56:46;17.42;;;11.57;;
72205;SDS011;60111;48.286;7.812;2024-03-23T04:59:19;17.20;;;11.28;;
72205;SDS011;60111;48.286;7.812;2024-03-23T05:01:52;12.43;;;10.83;;
72205;SDS011;60111;48.286;7.812;2024-03-23T05:04:24;14.70;;;10.78;;
72205;SDS011;60111;48.286;7.812;2024-03-23T05:06:57;16.60;;;11.45;;
72205;SDS011;60111;48.286;7.812;2024-03-23T05:09:30;17.77;;;11.28;;
72205;SDS011;60111;48.286;7.812;2024-03-23T05:12:03;16.85;;;11.25;;
72205;SDS011;60111;48.286;7.812;2024-03-23T05:14:36;13.15;;;10.30;;
72205;SDS011;60111;48.286;7.812;2024-03-23T05:17:09;16.52;;;10.70;;
72205;SDS011;60111;48.286;7.812;2024-03-23T05:19:41;16.65;;;11.50;;
72205;SDS011;60111;48.286;7.812;2024-03-23T05:22:15;14.57;;;10.17;;
72205;SDS011;60111;48.286;7.812;2024-03-23T05:24:47;18.25;;;11.15;;
72205;SDS011;60111;48.286;7.812;2024-03-23T05:27:20;14.95;;;11.15;;
72205;SDS011;60111;48.286;7.812;2024-03-23T05:29:52;14.10;;;10.68;;
72205;SDS011;60111;48.286;7.812;2024-03-23T05:32:25;15.08;;;10.98;;
72205;SDS011;60111;48.286;7.812;2024-03-23T05:34:58;11.97;;;9.28;;
72205;SDS011;60111;48.286;7.812;2024-03-23T05:37:30;12.93;;;10.03;;
72205;SDS011;60111;48.286;7.812;2024-03-23T05:40:04;15.18;;;9.08;;
72205;SDS011;60111;48.286;7.812;2024-03-23T05:42:39;10.82;;;8.78;;
72205;SDS011;60111;48.286;7.812;2024-03-23T05:45:12;10.98;;;8.00;;
72205;SDS011;60111;48.286;7.812;2024-03-23T05:47:44;11.05;;;8.30;;
72205;SDS011;60111;48.286;7.812;2024-03-23T05:50:17;10.18;;;7.30;;
72205;SDS011;60111;48.286;7.812;2024-03-23T05:52:50;6.08;;;5.15;;
72205;SDS011;60111;48.286;7.812;2024-03-23T05:55:22;6.35;;;5.03;;
72205;SDS011;60111;48.286;7.812;2024-03-23T05:57:55;3.85;;;2.98;;
72205;SDS011;60111;48.286;7.812;2024-03-23T06:00:27;1.60;;;1.50;;
72205;SDS011;60111;48.286;7.812;2024-03-23T06:03:00;1.25;;;1.05;;
72205;SDS011;60111;48.286;7.812;2024-03-23T06:05:33;0.70;;;0.70;;
72205;SDS011;60111;48.286;7.812;2024-03-23T06:08:06;0.68;;;0.68;;
72205;SDS011;60111;48.286;7.812;2024-03-23T06:10:40;1.95;;;0.78;;
72205;SDS011;60111;48.286;7.812;2024-03-23T06:13:13;0.50;;;0.50;;
72205;SDS011;60111;48.286;7.812;2024-03-23T06:15:45;1.05;;;0.70;;
72205;SDS011;60111;48.286;7.812;2024-03-23T06:18:19;0.75;;;0.70;;
72205;SDS011;60111;48.286;7.812;2024-03-23T06:20:52;0.78;;;0.70;;
72205;SDS011;60111;48.286;7.812;2024-03-23T06:23:25;0.85;;;0.68;;
72205;SDS011;60111;48.286;7.812;2024-03-23T06:25:57;0.68;;;0.68;;
72205;SDS011;60111;48.286;7.812;2024-03-23T06:28:30;0.78;;;0.50;;
72205;SDS011;60111;48.286;7.812;2024-03-23T06:31:02;0.50;;;0.50;;
72205;SDS011;60111;48.286;7.812;2024-03-23T06:33:35;0.88;;;0.70;;
72205;SDS011;60111;48.286;7.812;2024-03-23T06:36:13;0.40;;;0.40;;
72205;SDS011;60111;48.286;7.812;2024-03-23T06:38:42;0.30;;;0.30;;
72205;SDS011;60111;48.286;7.812;2024-03-23T06:41:17;0.30;;;0.30;;
72205;SDS011;60111;48.286;7.812;2024-03-23T06:43:50;0.43;;;0.43;;
72205;SDS011;60111;48.286;7.812;2024-03-23T06:46:23;1.57;;;0.40;;
72205;SDS011;60111;48.286;7.812;2024-03-23T06:48:55;0.40;;;0.40;;
72205;SDS011;60111;48.286;7.812;2024-03-23T06:51:28;0.37;;;0.37;;
72205;SDS011;60111;48.286;7.812;2024-03-23T06:54:01;0.37;;;0.37;;
72205;SDS011;60111;48.286;7.812;2024-03-23T06:56:34;0.35;;;0.30;;
72205;SDS011;60111;48.286;7.812;2024-03-23T06:59:07;0.30;;;0.30;;
72205;SDS011;60111;48.286;7.812;2024-03-23T07:01:39;0.40;;;0.40;;
72205;SDS011;60111;48.286;7.812;2024-03-23T07:04:13;0.45;;;0.45;;
72205;SDS011;60111;48.286;7.812;2024-03-23T07:06:45;1.00;;;0.30;;
72205;SDS011;60111;48.286;7.812;2024-03-23T07:09:18;0.65;;;0.35;;
72205;SDS011;60111;48.286;7.812;2024-03-23T07:11:58;0.40;;;0.40;;
72205;SDS011;60111;48.286;7.812;2024-03-23T07:14:31;0.40;;;0.40;;
72205;SDS011;60111;48.286;7.812;2024-03-23T07:17:04;0.40;;;0.40;;
72205;SDS011;60111;48.286;7.812;2024-03-23T07:19:36;0.65;;;0.65;;
72205;SDS011;60111;48.286;7.812;2024-03-23T07:22:09;1.55;;;0.50;;
72205;SDS011;60111;48.286;7.812;2024-03-23T07:24:43;0.53;;;0.40;;
72205;SDS011;60111;48.286;7.812;2024-03-23T07:27:16;0.97;;;0.67;;
72205;SDS011;60111;48.286;7.812;2024-03-23T07:29:49;0.37;;;0.30;;
72205;SDS011;60111;48.286;7.812;2024-03-23T07:32:21;0.82;;;0.50;;
72205;SDS011;60111;48.286;7.812;2024-03-23T07:34:54;0.70;;;0.70;;
72205;SDS011;60111;48.286;7.812;2024-03-23T07:37:27;1.90;;;0.78;;
72205;SDS011;60111;48.286;7.812;2024-03-23T07:40:00;0.70;;;0.70;;
72205;SDS011;60111;48.286;7.812;2024-03-23T07:42:32;0.70;;;0.70;;
72205;SDS011;60111;48.286;7.812;2024-03-23T07:45:05;0.65;;;0.65;;
72205;SDS011;60111;48.286;7.812;2024-03-23T07:50:13;0.50;;;0.50;;
72205;SDS011;60111;48.286;7.812;2024-03-23T07:52:45;1.00;;;0.50;;
72205;SDS011;60111;48.286;7.812;2024-03-23T07:55:18;0.60;;;0.50;;
72205;SDS011;60111;48.286;7.812;2024-03-23T07:57:51;1.57;;;0.93;;
72205;SDS011;60111;48.286;7.812;2024-03-23T08:00:24;0.70;;;0.70;;
72205;SDS011;60111;48.286;7.812;2024-03-23T08:02:57;0.82;;;0.80;;
72205;SDS011;60111;48.286;7.812;2024-03-23T08:05:29;0.90;;;0.90;;
72205;SDS011;60111;48.286;7.812;2024-03-23T08:08:02;2.00;;;1.40;;
72205;SDS011;60111;48.286;7.812;2024-03-23T08:10:37;4.77;;;1.80;;
72205;SDS011;60111;48.286;7.812;2024-03-23T08:13:24;5.35;;;1.70;;
72205;SDS011;60111;48.286;7.812;2024-03-23T08:15:57;7.72;;;2.47;;
72205;SDS011;60111;48.286;7.812;2024-03-23T08:18:30;5.20;;;2.33;;
72205;SDS011;60111;48.286;7.812;2024-03-23T08:21:04;10.18;;;2.77;;
72205;SDS011;60111;48.286;7.812;2024-03-23T08:23:37;6.43;;;2.30;;
72205;SDS011;60111;48.286;7.812;2024-03-23T08:26:11;6.50;;;2.80;;
72205;SDS011;60111;48.286;7.812;2024-03-23T08:28:44;9.17;;;3.10;;
72205;SDS011;60111;48.286;7.812;2024-03-23T08:34:11;7.17;;;2.95;;
72205;SDS011;60111;48.286;7.812;2024-03-23T08:36:44;7.75;;;4.47;;
72205;SDS011;60111;48.286;7.812;2024-03-23T08:39:16;10.13;;;2.90;;
72205;SDS011;60111;48.286;7.812;2024-03-23T08:41:50;9.63;;;3.75;;
72205;SDS011;60111;48.286;7.812;2024-03-23T08:44:23;10.55;;;3.00;;
72205;SDS011;60111;48.286;7.812;2024-03-23T08:46:56;8.30;;;3.15;;
72205;SDS011;60111;48.286;7.812;2024-03-23T08:49:28;10.90;;;4.03;;
72205;SDS011;60111;48.286;7.812;2024-03-23T08:52:01;9.00;;;3.45;;
72205;SDS011;60111;48.286;7.812;2024-03-23T08:54:33;10.43;;;3.12;;
72205;SDS011;60111;48.286;7.812;2024-03-23T08:57:06;11.43;;;4.65;;
72205;SDS011;60111;48.286;7.812;2024-03-23T08:59:39;9.25;;;4.33;;
72205;SDS011;60111;48.286;7.812;2024-03-23T09:02:11;10.40;;;4.83;;
72205;SDS011;60111;48.286;7.812;2024-03-23T09:04:46;12.75;;;4.17;;
72205;SDS011;60111;48.286;7.812;2024-03-23T09:07:18;11.00;;;4.20;;
72205;SDS011;60111;48.286;7.812;2024-03-23T09:09:51;10.93;;;4.58;;
72205;SDS011;60111;48.286;7.812;2024-03-23T09:12:23;10.15;;;3.83;;
72205;SDS011;60111;48.286;7.812;2024-03-23T09:14:56;18.20;;;4.47;;
72205;SDS011;60111;48.286;7.812;2024-03-23T09:17:29;10.48;;;4.55;;
72205;SDS011;60111;48.286;7.812;2024-03-23T09:20:02;11.53;;;4.20;;
72205;SDS011;60111;48.286;7.812;2024-03-23T09:22:35;11.25;;;3.83;;
72205;SDS011;60111;48.286;7.812;2024-03-23T09:25:08;10.93;;;3.75;;
72205;SDS011;60111;48.286;7.812;2024-03-23T09:27:41;11.95;;;3.58;;
72205;SDS011;60111;48.286;7.812;2024-03-23T09:30:14;10.60;;;3.33;;
72205;SDS011;60111;48.286;7.812;2024-03-23T09:32:48;8.35;;;3.62;;
72205;SDS011;60111;48.286;7.812;2024-03-23T09:35:20;7.50;;;3.10;;
72205;SDS011;60111;48.286;7.812;2024-03-23T09:37:53;10.78;;;3.65;;
72205;SDS011;60111;48.286;7.812;2024-03-23T09:40:25;8.93;;;2.97;;
72205;SDS011;60111;48.286;7.812;2024-03-23T09:42:58;12.90;;;3.33;;
72205;SDS011;60111;48.286;7.812;2024-03-23T09:45:31;9.75;;;3.15;;
72205;SDS011;60111;48.286;7.812;2024-03-23T09:48:10;10.15;;;3.25;;
72205;SDS011;60111;48.286;7.812;2024-03-23T09:50:43;9.65;;;3.35;;
72205;SDS011;60111;48.286;7.812;2024-03-23T09:53:19;12.75;;;3.30;;
72205;SDS011;60111;48.286;7.812;2024-03-23T09:55:53;14.85;;;3.72;;
72205;SDS011;60111;48.286;7.812;2024-03-23T09:58:25;10.93;;;3.27;;
72205;SDS011;60111;48.286;7.812;2024-03-23T10:00:58;10.10;;;3.10;;
72205;SDS011;60111;48.286;7.812;2024-03-23T10:03:31;13.32;;;3.30;;
72205;SDS011;60111;48.286;7.812;2024-03-23T10:06:03;13.03;;;2.80;;
72205;SDS011;60111;48.286;7.812;2024-03-23T10:08:36;7.85;;;2.52;;
72205;SDS011;60111;48.286;7.812;2024-03-23T10:11:16;10.40;;;2.95;;
72205;SDS011;60111;48.286;7.812;2024-03-23T10:13:49;10.48;;;3.17;;
72205;SDS011;60111;48.286;7.812;2024-03-23T10:16:22;8.50;;;2.72;;
72205;SDS011;60111;48.286;7.812;2024-03-23T10:18:57;11.00;;;2.65;;
72205;SDS011;60111;48.286;7.812;2024-03-23T10:21:30;6.58;;;1.77;;
72205;SDS011;60111;48.286;7.812;2024-03-23T10:24:07;4.67;;;1.90;;
72205;SDS011;60111;48.286;7.812;2024-03-23T10:29:32;4.83;;;2.15;;
72205;SDS011;60111;48.286;7.812;2024-03-23T10:32:07;7.60;;;2.50;;
72205;SDS011;60111;48.286;7.812;2024-03-23T10:34:44;6.08;;;2.83;;
72205;SDS011;60111;48.286;7.812;2024-03-23T10:37:17;5.62;;;2.40;;
72205;SDS011;60111;48.286;7.812;2024-03-23T10:39:51;5.30;;;2.27;;
72205;SDS011;60111;48.286;7.812;2024-03-23T10:42:23;5.12;;;3.15;;
72205;SDS011;60111;48.286;7.812;2024-03-23T10:44:56;6.92;;;2.70;;
72205;SDS011;60111;48.286;7.812;2024-03-23T10:47:31;6.27;;;2.90;;
72205;SDS011;60111;48.286;7.812;2024-03-23T10:50:04;6.23;;;3.03;;
72205;SDS011;60111;48.286;7.812;2024-03-23T10:52:36;6.92;;;3.15;;
72205;SDS011;60111;48.286;7.812;2024-03-23T10:55:09;6.22;;;2.77;;
72205;SDS011;60111;48.286;7.812;2024-03-23T10:57:49;7.53;;;2.50;;
72205;SDS011;60111;48.286;7.812;2024-03-23T11:00:19;6.78;;;3.17;;
72205;SDS011;60111;48.286;7.812;2024-03-23T11:02:54;4.93;;;2.27;;
72205;SDS011;60111;48.286;7.812;2024-03-23T11:08:02;4.90;;;2.87;;
72205;SDS011;60111;48.286;7.812;2024-03-23T11:10:35;4.22;;;2.20;;
72205;SDS011;60111;48.286;7.812;2024-03-23T11:13:23;3.77;;;1.60;;
72205;SDS011;60111;48.286;7.812;2024-03-23T11:15:56;4.95;;;1.90;;
72205;SDS011;60111;48.286;7.812;2024-03-23T11:18:30;5.55;;;2.35;;
72205;SDS011;60111;48.286;7.812;2024-03-23T11:21:02;5.20;;;1.92;;
72205;SDS011;60111;48.286;7.812;2024-03-23T11:23:35;7.55;;;2.30;;
72205;SDS011;60111;48.286;7.812;2024-03-23T11:26:08;6.47;;;2.15;;
72205;SDS011;60111;48.286;7.812;2024-03-23T11:28:40;4.58;;;2.00;;
72205;SDS011;60111;48.286;7.812;2024-03-23T11:31:13;5.42;;;1.72;;
72205;SDS011;60111;48.286;7.812;2024-03-23T11:33:46;6.55;;;1.80;;
72205;SDS011;60111;48.286;7.812;2024-03-23T11:36:19;7.22;;;2.30;;
72205;SDS011;60111;48.286;7.812;2024-03-23T11:38:52;6.22;;;2.52;;
72205;SDS011;60111;48.286;7.812;2024-03-23T11:41:25;9.53;;;2.45;;
72205;SDS011;60111;48.286;7.812;2024-03-23T11:43:57;7.42;;;2.25;;
72205;SDS011;60111;48.286;7.812;2024-03-23T11:46:30;9.80;;;1.95;;
72205;SDS011;60111;48.286;7.812;2024-03-23T11:49:02;9.00;;;1.90;;
72205;SDS011;60111;48.286;7.812;2024-03-23T11:51:35;5.58;;;2.10;;
72205;SDS011;60111;48.286;7.812;2024-03-23T11:56:53;6.05;;;1.80;;
72205;SDS011;60111;48.286;7.812;2024-03-23T11:59:35;6.05;;;2.02;;
72205;SDS011;60111;48.286;7.812;2024-03-23T12:02:11;9.33;;;2.20;;
72205;SDS011;60111;48.286;7.812;2024-03-23T12:04:45;4.95;;;2.05;;
72205;SDS011;60111;48.286;7.812;2024-03-23T12:07:19;7.17;;;2.30;;
72205;SDS011;60111;48.286;7.812;2024-03-23T12:10:05;8.35;;;1.90;;
72205;SDS011;60111;48.286;7.812;2024-03-23T12:12:38;8.30;;;2.62;;
72205;SDS011;60111;48.286;7.812;2024-03-23T12:15:11;6.12;;;2.12;;
72205;SDS011;60111;48.286;7.812;2024-03-23T12:17:43;10.93;;;2.52;;
72205;SDS011;60111;48.286;7.812;2024-03-23T12:20:16;7.15;;;1.67;;
72205;SDS011;60111;48.286;7.812;2024-03-23T12:22:48;4.33;;;1.47;;
72205;SDS011;60111;48.286;7.812;2024-03-23T12:25:21;6.17;;;1.40;;
72205;SDS011;60111;48.286;7.812;2024-03-23T12:27:54;4.80;;;1.57;;
72205;SDS011;60111;48.286;7.812;2024-03-23T12:30:36;8.63;;;1.95;;
72205;SDS011;60111;48.286;7.812;2024-03-23T12:33:13;4.67;;;2.27;;
72205;SDS011;60111;48.286;7.812;2024-03-23T12:38:20;3.40;;;1.20;;
72205;SDS011;60111;48.286;7.812;2024-03-23T12:40:52;2.77;;;1.27;;
72205;SDS011;60111;48.286;7.812;2024-03-23T12:43:25;4.17;;;1.22;;
72205;SDS011;60111;48.286;7.812;2024-03-23T12:45:58;3.92;;;1.15;;
72205;SDS011;60111;48.286;7.812;2024-03-23T12:48:31;5.60;;;1.37;;
72205;SDS011;60111;48.286;7.812;2024-03-23T12:51:03;4.30;;;1.17;;
72205;SDS011;60111;48.286;7.812;2024-03-23T12:53:38;3.65;;;1.12;;
72205;SDS011;60111;48.286;7.812;2024-03-23T12:56:13;2.83;;;1.15;;
72205;SDS011;60111;48.286;7.812;2024-03-23T12:58:46;4.53;;;1.50;;
72205;SDS011;60111;48.286;7.812;2024-03-23T13:01:26;3.98;;;1.30;;
72205;SDS011;60111;48.286;7.812;2024-03-23T13:03:58;5.15;;;1.40;;
72205;SDS011;60111;48.286;7.812;2024-03-23T13:06:33;6.87;;;1.67;;
72205;SDS011;60111;48.286;7.812;2024-03-23T13:09:06;4.45;;;1.40;;
72205;SDS011;60111;48.286;7.812;2024-03-23T13:11:47;2.88;;;1.36;;
72205;SDS011;60111;48.286;7.812;2024-03-23T13:14:24;4.95;;;1.50;;
72205;SDS011;60111;48.286;7.812;2024-03-23T13:16:57;5.35;;;1.35;;
72205;SDS011;60111;48.286;7.812;2024-03-23T13:19:30;3.40;;;1.35;;
72205;SDS011;60111;48.286;7.812;2024-03-23T13:22:06;4.30;;;1.50;;
72205;SDS011;60111;48.286;7.812;2024-03-23T13:24:40;5.35;;;1.07;;
72205;SDS011;60111;48.286;7.812;2024-03-23T13:27:13;4.17;;;1.13;;
72205;SDS011;60111;48.286;7.812;2024-03-23T13:29:46;3.47;;;1.45;;
72205;SDS011;60111;48.286;7.812;2024-03-23T13:32:19;4.70;;;1.32;;
72205;SDS011;60111;48.286;7.812;2024-03-23T13:34:52;7.70;;;2.90;;
72205;SDS011;60111;48.286;7.812;2024-03-23T13:37:27;5.35;;;1.50;;
72205;SDS011;60111;48.286;7.812;2024-03-23T13:40:03;6.70;;;1.55;;
72205;SDS011;60111;48.286;7.812;2024-03-23T13:42:37;3.23;;;1.37;;
72205;SDS011;60111;48.286;7.812;2024-03-23T13:45:10;5.50;;;1.60;;
72205;SDS011;60111;48.286;7.812;2024-03-23T13:47:43;4.87;;;1.75;;
72205;SDS011;60111;48.286;7.812;2024-03-23T13:50:16;4.85;;;1.75;;
72205;SDS011;60111;48.286;7.812;2024-03-23T13:52:52;2.30;;;1.30;;
72205;SDS011;60111;48.286;7.812;2024-03-23T13:55:24;4.53;;;1.50;;
72205;SDS011;60111;48.286;7.812;2024-03-23T13:57:57;6.92;;;2.00;;
72205;SDS011;60111;48.286;7.812;2024-03-23T14:00:29;3.47;;;1.35;;
72205;SDS011;60111;48.286;7.812;2024-03-23T14:03:03;2.40;;;1.20;;
72205;SDS011;60111;48.286;7.812;2024-03-23T14:05:36;6.90;;;1.62;;
72205;SDS011;60111;48.286;7.812;2024-03-23T14:08:10;3.80;;;1.50;;
72205;SDS011;60111;48.286;7.812;2024-03-23T14:10:43;5.45;;;1.40;;
72205;SDS011;60111;48.286;7.812;2024-03-23T14:13:16;2.98;;;1.20;;
72205;SDS011;60111;48.286;7.812;2024-03-23T14:15:52;3.95;;;1.20;;
72205;SDS011;60111;48.286;7.812;2024-03-23T14:23:42;1.25;;;0.72;;
72205;SDS011;60111;48.286;7.812;2024-03-23T14:26:14;1.52;;;0.90;;
72205;SDS011;60111;48.286;7.812;2024-03-23T14:28:47;4.33;;;0.80;;
72205;SDS011;60111;48.286;7.812;2024-03-23T14:31:22;1.90;;;0.87;;
72205;SDS011;60111;48.286;7.812;2024-03-23T14:33:56;3.72;;;1.10;;
72205;SDS011;60111;48.286;7.812;2024-03-23T14:36:28;3.72;;;1.00;;
72205;SDS011;60111;48.286;7.812;2024-03-23T14:39:01;3.95;;;1.02;;
72205;SDS011;60111;48.286;7.812;2024-03-23T14:41:34;3.25;;;1.20;;
72205;SDS011;60111;48.286;7.812;2024-03-23T14:44:06;3.87;;;1.17;;
72205;SDS011;60111;48.286;7.812;2024-03-23T14:46:39;6.25;;;2.10;;
72205;SDS011;60111;48.286;7.812;2024-03-23T14:49:16;4.42;;;1.80;;
72205;SDS011;60111;48.286;7.812;2024-03-23T14:51:49;1.98;;;1.40;;
72205;SDS011;60111;48.286;7.812;2024-03-23T14:54:22;4.83;;;1.20;;
72205;SDS011;60111;48.286;7.812;2024-03-23T14:56:55;4.83;;;1.25;;
72205;SDS011;60111;48.286;7.812;2024-03-23T14:59:29;3.03;;;1.20;;
72205;SDS011;60111;48.286;7.812;2024-03-23T15:02:02;2.65;;;0.80;;
72205;SDS011;60111;48.286;7.812;2024-03-23T15:04:34;3.72;;;1.60;;
72205;SDS011;60111;48.286;7.812;2024-03-23T15:07:07;3.37;;;0.90;;
72205;SDS011;60111;48.286;7.812;2024-03-23T15:09:39;1.77;;;1.00;;
72205;SDS011;60111;48.286;7.812;2024-03-23T15:12:13;0.82;;;0.82;;
72205;SDS011;60111;48.286;7.812;2024-03-23T15:14:46;1.32;;;0.88;;
72205;SDS011;60111;48.286;7.812;2024-03-23T15:17:19;1.10;;;0.88;;
72205;SDS011;60111;48.286;7.812;2024-03-23T15:19:52;4.03;;;0.70;;
72205;SDS011;60111;48.286;7.812;2024-03-23T15:22:27;2.70;;;0.70;;
72205;SDS011;60111;48.286;7.812;2024-03-23T15:25:00;0.90;;;0.90;;
72205;SDS011;60111;48.286;7.812;2024-03-23T15:27:35;1.75;;;0.80;;
72205;SDS011;60111;48.286;7.812;2024-03-23T15:30:09;1.57;;;1.12;;
72205;SDS011;60111;48.286;7.812;2024-03-23T15:32:42;2.20;;;1.10;;
72205;SDS011;60111;48.286;7.812;2024-03-23T15:35:15;3.55;;;1.15;;
72205;SDS011;60111;48.286;7.812;2024-03-23T15:37:47;3.20;;;2.08;;
72205;SDS011;60111;48.286;7.812;2024-03-23T15:40:20;2.50;;;1.20;;
72205;SDS011;60111;48.286;7.812;2024-03-23T15:42:53;12.45;;;6.60;;
72205;SDS011;60111;48.286;7.812;2024-03-23T15:45:25;3.02;;;1.65;;
72205;SDS011;60111;48.286;7.812;2024-03-23T15:47:58;1.90;;;1.20;;
72205;SDS011;60111;48.286;7.812;2024-03-23T15:50:31;1.98;;;1.30;;
72205;SDS011;60111;48.286;7.812;2024-03-23T15:53:03;1.65;;;0.82;;
72205;SDS011;60111;48.286;7.812;2024-03-23T15:55:36;0.62;;;0.53;;
72205;SDS011;60111;48.286;7.812;2024-03-23T15:58:09;1.95;;;0.75;;
72205;SDS011;60111;48.286;7.812;2024-03-23T16:00:41;2.30;;;0.88;;
72205;SDS011;60111;48.286;7.812;2024-03-23T16:03:14;3.05;;;0.82;;
72205;SDS011;60111;48.286;7.812;2024-03-23T16:05:55;2.35;;;1.35;;
72205;SDS011;60111;48.286;7.812;2024-03-23T16:08:24;3.08;;;1.50;;
72205;SDS011;60111;48.286;7.812;2024-03-23T16:11:00;4.08;;;1.87;;
72205;SDS011;60111;48.286;7.812;2024-03-23T16:13:39;4.12;;;1.35;;
72205;SDS011;60111;48.286;7.812;2024-03-23T16:16:14;1.75;;;0.90;;
72205;SDS011;60111;48.286;7.812;2024-03-23T16:18:47;3.70;;;1.10;;
72205;SDS011;60111;48.286;7.812;2024-03-23T16:21:19;1.62;;;1.12;;
72205;SDS011;60111;48.286;7.812;2024-03-23T16:23:52;2.75;;;1.30;;
72205;SDS011;60111;48.286;7.812;2024-03-23T16:26:25;2.30;;;1.27;;
72205;SDS011;60111;48.286;7.812;2024-03-23T16:28:57;1.65;;;0.72;;
72205;SDS011;60111;48.286;7.812;2024-03-23T16:31:30;1.75;;;0.80;;
72205;SDS011;60111;48.286;7.812;2024-03-23T16:34:02;1.82;;;0.70;;
72205;SDS011;60111;48.286;7.812;2024-03-23T16:36:35;4.60;;;1.00;;